sensor_id;sensor_type;location;lat;lon;timestamp;P1;durP1;ratioP1;P2;durP2;ratioP2
38779;SDS011;29273;49.962;9.768;2024-03-06T00:00:47;4.97;;;4.47;;
38779;SDS011;29273;49.962;9.768;2024-03-06T00:03:12;5.20;;;4.50;;
38779;SDS011;29273;49.962;9.768;2024-03-06T00:05:38;6.03;;;4.95;;
38779;SDS011;29273;49.962;9.768;2024-03-06T00:08:03;6.65;;;5.07;;
38779;SDS011;29273;49.962;9.768;2024-03-06T00:10:29;5.18;;;4.38;;
38779;SDS011;29273;49.962;9.768;2024-03-06T00:12:55;5.15;;;4.50;;
38779;SDS011;29273;49.962;9.768;2024-03-06T00:15:20;5.30;;;4.63;;
38779;SDS011;29273;49.962;9.768;2024-03-06T00:17:46;6.30;;;4.47;;
38779;SDS011;29273;49.962;9.768;2024-03-06T00:20:11;5.28;;;4.45;;
38779;SDS011;29273;49.962;9.768;2024-03-06T00:22:37;5.15;;;4.65;;
38779;SDS011;29273;49.962;9.768;2024-03-06T00:25:03;5.72;;;4.72;;
38779;SDS011;29273;49.962;9.768;2024-03-06T00:27:28;4.47;;;4.05;;
38779;SDS011;29273;49.962;9.768;2024-03-06T00:29:54;5.22;;;4.05;;
38779;SDS011;29273;49.962;9.768;2024-03-06T00:32:19;5.03;;;4.53;;
38779;SDS011;29273;49.962;9.768;2024-03-06T00:34:45;4.20;;;3.75;;
38779;SDS011;29273;49.962;9.768;2024-03-06T00:37:10;5.18;;;4.43;;
38779;SDS011;29273;49.962;9.768;2024-03-06T00:39:36;4.47;;;3.95;;
38779;SDS011;29273;49.962;9.768;2024-03-06T00:42:01;4.63;;;3.90;;
38779;SDS011;29273;49.962;9.768;2024-03-06T00:44:27;5.15;;;4.28;;
38779;SDS011;29273;49.962;9.768;2024-03-06T00:46:52;5.80;;;4.85;;
38779;SDS011;29273;49.962;9.768;2024-03-06T00:49:18;4.43;;;3.90;;
38779;SDS011;29273;49.962;9.768;2024-03-06T00:51:43;5.35;;;4.45;;
38779;SDS011;29273;49.962;9.768;2024-03-06T00:54:09;4.90;;;4.32;;
38779;SDS011;29273;49.962;9.768;2024-03-06T00:56:38;5.22;;;4.50;;
38779;SDS011;29273;49.962;9.768;2024-03-06T00:59:04;4.80;;;4.30;;
38779;SDS011;29273;49.962;9.768;2024-03-06T01:01:29;5.40;;;4.63;;
38779;SDS011;29273;49.962;9.768;2024-03-06T01:03:55;5.30;;;4.63;;
38779;SDS011;29273;49.962;9.768;2024-03-06T01:06:20;4.68;;;4.18;;
38779;SDS011;29273;49.962;9.768;2024-03-06T01:08:46;5.35;;;4.63;;
38779;SDS011;29273;49.962;9.768;2024-03-06T01:11:11;5.47;;;4.63;;
38779;SDS011;29273;49.962;9.768;2024-03-06T01:13:39;6.03;;;4.85;;
38779;SDS011;29273;49.962;9.768;2024-03-06T01:16:05;5.28;;;4.43;;
38779;SDS011;29273;49.962;9.768;2024-03-06T01:18:31;5.45;;;4.50;;
38779;SDS011;29273;49.962;9.768;2024-03-06T01:20:57;5.13;;;4.43;;
38779;SDS011;29273;49.962;9.768;2024-03-06T01:23:23;5.85;;;4.75;;
38779;SDS011;29273;49.962;9.768;2024-03-06T01:25:48;5.28;;;4.65;;
38779;SDS011;29273;49.962;9.768;2024-03-06T01:28:14;5.40;;;4.57;;
38779;SDS011;29273;49.962;9.768;2024-03-06T01:30:39;6.45;;;5.10;;
38779;SDS011;29273;49.962;9.768;2024-03-06T01:33:05;6.28;;;4.75;;
38779;SDS011;29273;49.962;9.768;2024-03-06T01:35:31;5.72;;;4.97;;
38779;SDS011;29273;49.962;9.768;2024-03-06T01:37:57;6.68;;;5.15;;
38779;SDS011;29273;49.962;9.768;2024-03-06T01:40:23;6.55;;;5.40;;
38779;SDS011;29273;49.962;9.768;2024-03-06T01:42:49;6.03;;;4.88;;
38779;SDS011;29273;49.962;9.768;2024-03-06T01:45:14;6.03;;;4.72;;
38779;SDS011;29273;49.962;9.768;2024-03-06T01:47:40;5.82;;;4.90;;
38779;SDS011;29273;49.962;9.768;2024-03-06T01:50:06;6.28;;;4.85;;
38779;SDS011;29273;49.962;9.768;2024-03-06T01:52:34;6.47;;;5.10;;
38779;SDS011;29273;49.962;9.768;2024-03-06T01:55:01;5.28;;;4.60;;
38779;SDS011;29273;49.962;9.768;2024-03-06T01:57:27;6.20;;;5.00;;
38779;SDS011;29273;49.962;9.768;2024-03-06T01:59:53;6.07;;;4.88;;
38779;SDS011;29273;49.962;9.768;2024-03-06T02:02:19;5.43;;;4.80;;
38779;SDS011;29273;49.962;9.768;2024-03-06T02:04:45;6.25;;;4.80;;
38779;SDS011;29273;49.962;9.768;2024-03-06T02:07:11;5.63;;;4.85;;
38779;SDS011;29273;49.962;9.768;2024-03-06T02:09:38;6.15;;;5.00;;
38779;SDS011;29273;49.962;9.768;2024-03-06T02:12:05;6.20;;;5.03;;
38779;SDS011;29273;49.962;9.768;2024-03-06T02:14:33;6.57;;;5.35;;
38779;SDS011;29273;49.962;9.768;2024-03-06T02:17:00;6.30;;;5.03;;
38779;SDS011;29273;49.962;9.768;2024-03-06T02:19:36;6.20;;;5.07;;
38779;SDS011;29273;49.962;9.768;2024-03-06T02:22:02;5.97;;;4.97;;
38779;SDS011;29273;49.962;9.768;2024-03-06T02:24:28;5.93;;;5.20;;
38779;SDS011;29273;49.962;9.768;2024-03-06T02:26:53;6.15;;;5.28;;
38779;SDS011;29273;49.962;9.768;2024-03-06T02:29:19;5.43;;;4.85;;
38779;SDS011;29273;49.962;9.768;2024-03-06T02:31:44;7.45;;;5.90;;
38779;SDS011;29273;49.962;9.768;2024-03-06T02:34:10;7.78;;;6.32;;
38779;SDS011;29273;49.962;9.768;2024-03-06T02:36:35;9.02;;;6.43;;
38779;SDS011;29273;49.962;9.768;2024-03-06T02:39:01;7.88;;;5.90;;
38779;SDS011;29273;49.962;9.768;2024-03-06T02:41:27;6.97;;;5.80;;
38779;SDS011;29273;49.962;9.768;2024-03-06T02:43:52;6.43;;;5.55;;
38779;SDS011;29273;49.962;9.768;2024-03-06T02:46:17;6.63;;;5.68;;
38779;SDS011;29273;49.962;9.768;2024-03-06T02:48:43;6.57;;;5.82;;
38779;SDS011;29273;49.962;9.768;2024-03-06T02:51:08;6.72;;;5.57;;
38779;SDS011;29273;49.962;9.768;2024-03-06T02:53:34;5.93;;;5.10;;
38779;SDS011;29273;49.962;9.768;2024-03-06T02:55:59;7.32;;;5.55;;
38779;SDS011;29273;49.962;9.768;2024-03-06T02:58:25;5.55;;;4.90;;
38779;SDS011;29273;49.962;9.768;2024-03-06T03:00:50;5.50;;;4.95;;
38779;SDS011;29273;49.962;9.768;2024-03-06T03:03:16;7.03;;;5.90;;
38779;SDS011;29273;49.962;9.768;2024-03-06T03:05:41;6.53;;;5.35;;
38779;SDS011;29273;49.962;9.768;2024-03-06T03:08:07;6.00;;;5.00;;
38779;SDS011;29273;49.962;9.768;2024-03-06T03:10:33;6.45;;;4.93;;
38779;SDS011;29273;49.962;9.768;2024-03-06T03:13:01;6.57;;;5.20;;
38779;SDS011;29273;49.962;9.768;2024-03-06T03:15:27;6.75;;;5.47;;
38779;SDS011;29273;49.962;9.768;2024-03-06T03:17:53;6.47;;;5.00;;
38779;SDS011;29273;49.962;9.768;2024-03-06T03:20:18;6.63;;;5.38;;
38779;SDS011;29273;49.962;9.768;2024-03-06T03:22:44;6.38;;;5.22;;
38779;SDS011;29273;49.962;9.768;2024-03-06T03:25:10;6.10;;;5.32;;
38779;SDS011;29273;49.962;9.768;2024-03-06T03:27:37;6.85;;;5.47;;
38779;SDS011;29273;49.962;9.768;2024-03-06T03:30:04;7.20;;;5.63;;
38779;SDS011;29273;49.962;9.768;2024-03-06T03:32:34;6.15;;;5.10;;
38779;SDS011;29273;49.962;9.768;2024-03-06T03:34:59;7.22;;;5.57;;
38779;SDS011;29273;49.962;9.768;2024-03-06T03:37:25;6.05;;;4.75;;
38779;SDS011;29273;49.962;9.768;2024-03-06T03:39:50;6.70;;;5.60;;
38779;SDS011;29273;49.962;9.768;2024-03-06T03:42:16;5.70;;;4.70;;
38779;SDS011;29273;49.962;9.768;2024-03-06T03:44:41;5.53;;;4.53;;
38779;SDS011;29273;49.962;9.768;2024-03-06T03:47:07;5.50;;;4.53;;
38779;SDS011;29273;49.962;9.768;2024-03-06T03:49:32;5.55;;;4.65;;
38779;SDS011;29273;49.962;9.768;2024-03-06T03:51:57;6.50;;;5.18;;
38779;SDS011;29273;49.962;9.768;2024-03-06T03:54:23;6.88;;;5.53;;
38779;SDS011;29273;49.962;9.768;2024-03-06T03:56:49;5.65;;;4.85;;
38779;SDS011;29273;49.962;9.768;2024-03-06T03:59:15;6.50;;;5.20;;
38779;SDS011;29273;49.962;9.768;2024-03-06T04:01:40;5.70;;;4.47;;
38779;SDS011;29273;49.962;9.768;2024-03-06T04:04:06;5.70;;;4.60;;
38779;SDS011;29273;49.962;9.768;2024-03-06T04:06:33;5.53;;;4.82;;
38779;SDS011;29273;49.962;9.768;2024-03-06T04:08:59;6.40;;;4.68;;
38779;SDS011;29273;49.962;9.768;2024-03-06T04:11:24;5.53;;;4.68;;
38779;SDS011;29273;49.962;9.768;2024-03-06T04:13:49;6.07;;;4.32;;
38779;SDS011;29273;49.962;9.768;2024-03-06T04:16:16;5.10;;;4.45;;
38779;SDS011;29273;49.962;9.768;2024-03-06T04:18:43;5.53;;;4.60;;
38779;SDS011;29273;49.962;9.768;2024-03-06T04:21:08;5.72;;;4.75;;
38779;SDS011;29273;49.962;9.768;2024-03-06T04:23:35;5.07;;;4.53;;
38779;SDS011;29273;49.962;9.768;2024-03-06T04:26:01;6.22;;;4.90;;
38779;SDS011;29273;49.962;9.768;2024-03-06T04:28:27;6.80;;;5.28;;
38779;SDS011;29273;49.962;9.768;2024-03-06T04:30:53;6.28;;;5.07;;
38779;SDS011;29273;49.962;9.768;2024-03-06T04:33:18;6.72;;;5.30;;
38779;SDS011;29273;49.962;9.768;2024-03-06T04:35:44;6.10;;;5.13;;
38779;SDS011;29273;49.962;9.768;2024-03-06T04:38:09;5.75;;;4.72;;
38779;SDS011;29273;49.962;9.768;2024-03-06T04:40:35;8.75;;;4.93;;
38779;SDS011;29273;49.962;9.768;2024-03-06T04:43:00;6.68;;;5.32;;
38779;SDS011;29273;49.962;9.768;2024-03-06T04:45:26;6.30;;;5.13;;
38779;SDS011;29273;49.962;9.768;2024-03-06T04:47:53;6.38;;;5.07;;
38779;SDS011;29273;49.962;9.768;2024-03-06T04:50:18;6.40;;;5.35;;
38779;SDS011;29273;49.962;9.768;2024-03-06T04:52:44;7.22;;;5.18;;
38779;SDS011;29273;49.962;9.768;2024-03-06T04:55:12;6.43;;;4.80;;
38779;SDS011;29273;49.962;9.768;2024-03-06T04:57:39;6.40;;;4.93;;
38779;SDS011;29273;49.962;9.768;2024-03-06T05:00:09;6.60;;;4.90;;
38779;SDS011;29273;49.962;9.768;2024-03-06T05:02:36;7.60;;;5.85;;
38779;SDS011;29273;49.962;9.768;2024-03-06T05:05:02;5.80;;;4.97;;
38779;SDS011;29273;49.962;9.768;2024-03-06T05:07:29;7.20;;;5.55;;
38779;SDS011;29273;49.962;9.768;2024-03-06T05:09:55;7.10;;;5.22;;
38779;SDS011;29273;49.962;9.768;2024-03-06T05:12:22;6.38;;;5.40;;
38779;SDS011;29273;49.962;9.768;2024-03-06T05:14:48;6.78;;;5.72;;
38779;SDS011;29273;49.962;9.768;2024-03-06T05:17:14;7.35;;;5.55;;
38779;SDS011;29273;49.962;9.768;2024-03-06T05:19:39;7.18;;;5.38;;
38779;SDS011;29273;49.962;9.768;2024-03-06T05:22:05;7.75;;;6.13;;
38779;SDS011;29273;49.962;9.768;2024-03-06T05:24:30;6.95;;;5.47;;
38779;SDS011;29273;49.962;9.768;2024-03-06T05:26:56;6.30;;;5.10;;
38779;SDS011;29273;49.962;9.768;2024-03-06T05:29:21;6.60;;;5.03;;
38779;SDS011;29273;49.962;9.768;2024-03-06T05:31:47;6.63;;;5.50;;
38779;SDS011;29273;49.962;9.768;2024-03-06T05:34:12;6.85;;;5.18;;
38779;SDS011;29273;49.962;9.768;2024-03-06T05:36:38;5.88;;;4.97;;
38779;SDS011;29273;49.962;9.768;2024-03-06T05:39:03;7.28;;;5.53;;
38779;SDS011;29273;49.962;9.768;2024-03-06T05:41:40;7.63;;;5.70;;
38779;SDS011;29273;49.962;9.768;2024-03-06T05:44:07;8.15;;;5.68;;
38779;SDS011;29273;49.962;9.768;2024-03-06T05:46:33;6.55;;;5.68;;
38779;SDS011;29273;49.962;9.768;2024-03-06T05:48:58;7.85;;;5.43;;
38779;SDS011;29273;49.962;9.768;2024-03-06T05:51:24;8.10;;;5.10;;
38779;SDS011;29273;49.962;9.768;2024-03-06T05:53:50;6.80;;;5.28;;
38779;SDS011;29273;49.962;9.768;2024-03-06T05:56:16;6.53;;;5.55;;
38779;SDS011;29273;49.962;9.768;2024-03-06T05:58:43;6.05;;;5.15;;
38779;SDS011;29273;49.962;9.768;2024-03-06T06:01:12;6.97;;;5.53;;
38779;SDS011;29273;49.962;9.768;2024-03-06T06:03:40;6.68;;;5.43;;
38779;SDS011;29273;49.962;9.768;2024-03-06T06:06:06;6.70;;;5.38;;
38779;SDS011;29273;49.962;9.768;2024-03-06T06:08:33;6.47;;;5.30;;
38779;SDS011;29273;49.962;9.768;2024-03-06T06:11:00;6.15;;;5.28;;
38779;SDS011;29273;49.962;9.768;2024-03-06T06:13:28;6.20;;;5.18;;
38779;SDS011;29273;49.962;9.768;2024-03-06T06:15:54;7.07;;;5.65;;
38779;SDS011;29273;49.962;9.768;2024-03-06T06:18:19;7.50;;;5.75;;
38779;SDS011;29273;49.962;9.768;2024-03-06T06:20:45;6.15;;;5.28;;
38779;SDS011;29273;49.962;9.768;2024-03-06T06:23:10;8.18;;;5.95;;
38779;SDS011;29273;49.962;9.768;2024-03-06T06:25:36;8.32;;;5.90;;
38779;SDS011;29273;49.962;9.768;2024-03-06T06:28:01;8.02;;;5.90;;
38779;SDS011;29273;49.962;9.768;2024-03-06T06:30:27;7.45;;;5.82;;
38779;SDS011;29273;49.962;9.768;2024-03-06T06:32:52;8.60;;;5.40;;
38779;SDS011;29273;49.962;9.768;2024-03-06T06:35:18;7.40;;;5.53;;
38779;SDS011;29273;49.962;9.768;2024-03-06T06:37:43;6.68;;;4.97;;
38779;SDS011;29273;49.962;9.768;2024-03-06T06:40:09;7.28;;;5.60;;
38779;SDS011;29273;49.962;9.768;2024-03-06T06:42:35;6.07;;;5.18;;
38779;SDS011;29273;49.962;9.768;2024-03-06T06:45:03;5.70;;;4.82;;
38779;SDS011;29273;49.962;9.768;2024-03-06T06:47:31;7.30;;;5.32;;
38779;SDS011;29273;49.962;9.768;2024-03-06T06:49:57;6.40;;;5.10;;
38779;SDS011;29273;49.962;9.768;2024-03-06T06:52:22;7.00;;;5.53;;
38779;SDS011;29273;49.962;9.768;2024-03-06T06:54:47;7.07;;;4.88;;
38779;SDS011;29273;49.962;9.768;2024-03-06T06:57:15;6.50;;;5.07;;
38779;SDS011;29273;49.962;9.768;2024-03-06T06:59:40;5.70;;;4.85;;
38779;SDS011;29273;49.962;9.768;2024-03-06T07:02:06;6.85;;;5.30;;
38779;SDS011;29273;49.962;9.768;2024-03-06T07:04:31;6.70;;;5.28;;
38779;SDS011;29273;49.962;9.768;2024-03-06T07:06:57;8.82;;;5.35;;
38779;SDS011;29273;49.962;9.768;2024-03-06T07:09:22;7.60;;;5.55;;
38779;SDS011;29273;49.962;9.768;2024-03-06T07:11:48;6.63;;;4.95;;
38779;SDS011;29273;49.962;9.768;2024-03-06T07:14:14;10.60;;;5.72;;
38779;SDS011;29273;49.962;9.768;2024-03-06T07:16:43;6.78;;;5.10;;
38779;SDS011;29273;49.962;9.768;2024-03-06T07:19:09;6.25;;;4.55;;
38779;SDS011;29273;49.962;9.768;2024-03-06T07:21:35;8.13;;;5.45;;
38779;SDS011;29273;49.962;9.768;2024-03-06T07:24:01;7.15;;;5.20;;
38779;SDS011;29273;49.962;9.768;2024-03-06T07:26:26;7.10;;;5.85;;
38779;SDS011;29273;49.962;9.768;2024-03-06T07:28:55;7.50;;;5.82;;
38779;SDS011;29273;49.962;9.768;2024-03-06T07:31:20;7.25;;;5.47;;
38779;SDS011;29273;49.962;9.768;2024-03-06T07:33:46;8.13;;;5.88;;
38779;SDS011;29273;49.962;9.768;2024-03-06T07:36:11;7.30;;;5.35;;
38779;SDS011;29273;49.962;9.768;2024-03-06T07:38:37;8.38;;;5.80;;
38779;SDS011;29273;49.962;9.768;2024-03-06T07:41:02;8.55;;;5.88;;
38779;SDS011;29273;49.962;9.768;2024-03-06T07:43:28;7.82;;;5.80;;
38779;SDS011;29273;49.962;9.768;2024-03-06T07:45:53;7.78;;;5.57;;
38779;SDS011;29273;49.962;9.768;2024-03-06T07:48:19;8.88;;;6.38;;
38779;SDS011;29273;49.962;9.768;2024-03-06T07:50:44;8.43;;;5.65;;
38779;SDS011;29273;49.962;9.768;2024-03-06T07:53:10;10.38;;;6.22;;
38779;SDS011;29273;49.962;9.768;2024-03-06T07:55:35;8.95;;;6.03;;
38779;SDS011;29273;49.962;9.768;2024-03-06T07:58:01;8.20;;;6.18;;
38779;SDS011;29273;49.962;9.768;2024-03-06T08:00:26;8.27;;;6.00;;
38779;SDS011;29273;49.962;9.768;2024-03-06T08:02:52;7.72;;;5.95;;
38779;SDS011;29273;49.962;9.768;2024-03-06T08:05:17;7.65;;;5.70;;
38779;SDS011;29273;49.962;9.768;2024-03-06T08:07:43;8.10;;;6.55;;
38779;SDS011;29273;49.962;9.768;2024-03-06T08:10:10;7.22;;;5.55;;
38779;SDS011;29273;49.962;9.768;2024-03-06T08:12:40;9.10;;;6.80;;
38779;SDS011;29273;49.962;9.768;2024-03-06T08:15:07;8.45;;;6.38;;
38779;SDS011;29273;49.962;9.768;2024-03-06T08:17:35;8.32;;;6.75;;
38779;SDS011;29273;49.962;9.768;2024-03-06T08:20:01;10.32;;;7.53;;
38779;SDS011;29273;49.962;9.768;2024-03-06T08:22:39;8.88;;;6.72;;
38779;SDS011;29273;49.962;9.768;2024-03-06T08:25:06;10.60;;;7.30;;
38779;SDS011;29273;49.962;9.768;2024-03-06T08:27:36;9.30;;;6.88;;
38779;SDS011;29273;49.962;9.768;2024-03-06T08:30:06;9.05;;;6.78;;
38779;SDS011;29273;49.962;9.768;2024-03-06T08:32:33;11.15;;;7.18;;
38779;SDS011;29273;49.962;9.768;2024-03-06T08:35:08;8.68;;;6.78;;
38779;SDS011;29273;49.962;9.768;2024-03-06T08:37:41;9.48;;;7.05;;
38779;SDS011;29273;49.962;9.768;2024-03-06T08:40:07;9.75;;;7.63;;
38779;SDS011;29273;49.962;9.768;2024-03-06T08:42:35;8.85;;;6.55;;
38779;SDS011;29273;49.962;9.768;2024-03-06T08:45:01;9.73;;;7.03;;
38779;SDS011;29273;49.962;9.768;2024-03-06T08:47:27;10.85;;;6.25;;
38779;SDS011;29273;49.962;9.768;2024-03-06T08:49:53;9.25;;;6.93;;
38779;SDS011;29273;49.962;9.768;2024-03-06T08:52:19;8.43;;;6.38;;
38779;SDS011;29273;49.962;9.768;2024-03-06T08:54:46;9.10;;;6.25;;
38779;SDS011;29273;49.962;9.768;2024-03-06T08:57:11;10.93;;;7.50;;
38779;SDS011;29273;49.962;9.768;2024-03-06T08:59:38;8.88;;;6.43;;
38779;SDS011;29273;49.962;9.768;2024-03-06T09:02:16;8.88;;;6.82;;
38779;SDS011;29273;49.962;9.768;2024-03-06T09:04:43;8.15;;;6.47;;
38779;SDS011;29273;49.962;9.768;2024-03-06T09:07:09;9.40;;;6.97;;
38779;SDS011;29273;49.962;9.768;2024-03-06T09:09:35;10.43;;;7.97;;
38779;SDS011;29273;49.962;9.768;2024-03-06T09:12:08;9.00;;;6.53;;
38779;SDS011;29273;49.962;9.768;2024-03-06T09:14:38;9.18;;;6.93;;
38779;SDS011;29273;49.962;9.768;2024-03-06T09:17:04;8.25;;;6.85;;
38779;SDS011;29273;49.962;9.768;2024-03-06T09:19:31;8.90;;;6.65;;
38779;SDS011;29273;49.962;9.768;2024-03-06T09:21:58;9.75;;;7.13;;
38779;SDS011;29273;49.962;9.768;2024-03-06T09:24:24;10.25;;;7.25;;
38779;SDS011;29273;49.962;9.768;2024-03-06T09:26:50;10.30;;;7.53;;
38779;SDS011;29273;49.962;9.768;2024-03-06T09:29:16;8.82;;;6.82;;
38779;SDS011;29273;49.962;9.768;2024-03-06T09:31:42;9.93;;;7.35;;
38779;SDS011;29273;49.962;9.768;2024-03-06T09:34:08;10.48;;;7.13;;
38779;SDS011;29273;49.962;9.768;2024-03-06T09:36:48;9.77;;;6.95;;
38779;SDS011;29273;49.962;9.768;2024-03-06T09:39:14;8.40;;;6.65;;
38779;SDS011;29273;49.962;9.768;2024-03-06T09:41:50;9.45;;;6.75;;
38779;SDS011;29273;49.962;9.768;2024-03-06T09:44:16;8.82;;;6.63;;
38779;SDS011;29273;49.962;9.768;2024-03-06T09:46:46;9.07;;;6.60;;
38779;SDS011;29273;49.962;9.768;2024-03-06T09:49:14;9.40;;;6.85;;
38779;SDS011;29273;49.962;9.768;2024-03-06T09:51:45;9.73;;;7.32;;
38779;SDS011;29273;49.962;9.768;2024-03-06T09:54:15;8.45;;;6.47;;
38779;SDS011;29273;49.962;9.768;2024-03-06T09:56:44;7.78;;;5.85;;
38779;SDS011;29273;49.962;9.768;2024-03-06T09:59:11;9.52;;;6.70;;
38779;SDS011;29273;49.962;9.768;2024-03-06T10:01:39;9.93;;;7.00;;
38779;SDS011;29273;49.962;9.768;2024-03-06T10:04:19;9.98;;;7.53;;
38779;SDS011;29273;49.962;9.768;2024-03-06T10:06:58;9.32;;;6.85;;
38779;SDS011;29273;49.962;9.768;2024-03-06T10:09:24;9.48;;;7.18;;
38779;SDS011;29273;49.962;9.768;2024-03-06T10:11:51;7.60;;;6.03;;
38779;SDS011;29273;49.962;9.768;2024-03-06T10:14:22;8.93;;;6.60;;
38779;SDS011;29273;49.962;9.768;2024-03-06T10:16:54;8.57;;;6.22;;
38779;SDS011;29273;49.962;9.768;2024-03-06T10:19:27;8.63;;;6.43;;
38779;SDS011;29273;49.962;9.768;2024-03-06T10:21:54;10.15;;;6.80;;
38779;SDS011;29273;49.962;9.768;2024-03-06T10:24:25;8.77;;;6.22;;
38779;SDS011;29273;49.962;9.768;2024-03-06T10:29:22;7.03;;;5.57;;
38779;SDS011;29273;49.962;9.768;2024-03-06T10:31:53;8.00;;;5.40;;
38779;SDS011;29273;49.962;9.768;2024-03-06T10:34:25;7.70;;;5.60;;
38779;SDS011;29273;49.962;9.768;2024-03-06T10:36:58;7.05;;;5.65;;
38779;SDS011;29273;49.962;9.768;2024-03-06T10:39:30;7.15;;;5.53;;
38779;SDS011;29273;49.962;9.768;2024-03-06T10:41:59;8.00;;;5.32;;
38779;SDS011;29273;49.962;9.768;2024-03-06T10:44:27;7.68;;;5.53;;
38779;SDS011;29273;49.962;9.768;2024-03-06T10:47:00;6.55;;;5.30;;
38779;SDS011;29273;49.962;9.768;2024-03-06T10:49:28;8.15;;;5.63;;
38779;SDS011;29273;49.962;9.768;2024-03-06T10:52:03;7.40;;;5.63;;
38779;SDS011;29273;49.962;9.768;2024-03-06T10:54:32;7.50;;;5.43;;
38779;SDS011;29273;49.962;9.768;2024-03-06T10:57:00;6.80;;;5.35;;
38779;SDS011;29273;49.962;9.768;2024-03-06T10:59:26;6.45;;;5.13;;
38779;SDS011;29273;49.962;9.768;2024-03-06T11:01:53;7.22;;;5.47;;
38779;SDS011;29273;49.962;9.768;2024-03-06T11:04:26;7.70;;;6.05;;
38779;SDS011;29273;49.962;9.768;2024-03-06T11:06:59;8.07;;;6.10;;
38779;SDS011;29273;49.962;9.768;2024-03-06T11:09:34;7.25;;;5.78;;
38779;SDS011;29273;49.962;9.768;2024-03-06T11:12:05;6.93;;;5.60;;
38779;SDS011;29273;49.962;9.768;2024-03-06T11:14:37;7.90;;;6.13;;
38779;SDS011;29273;49.962;9.768;2024-03-06T11:17:04;7.55;;;5.97;;
38779;SDS011;29273;49.962;9.768;2024-03-06T11:28:11;6.43;;;5.25;;
38779;SDS011;29273;49.962;9.768;2024-03-06T11:31:00;8.23;;;6.38;;
38779;SDS011;29273;49.962;9.768;2024-03-06T11:33:43;6.80;;;5.65;;
38779;SDS011;29273;49.962;9.768;2024-03-06T11:36:28;7.15;;;6.00;;
38779;SDS011;29273;49.962;9.768;2024-03-06T11:41:28;8.85;;;6.20;;
38779;SDS011;29273;49.962;9.768;2024-03-06T11:43:55;7.25;;;5.57;;
38779;SDS011;29273;49.962;9.768;2024-03-06T11:46:22;7.40;;;5.95;;
38779;SDS011;29273;49.962;9.768;2024-03-06T11:49:04;7.80;;;5.65;;
38779;SDS011;29273;49.962;9.768;2024-03-06T11:51:45;7.35;;;5.85;;
38779;SDS011;29273;49.962;9.768;2024-03-06T11:54:12;6.50;;;5.43;;
38779;SDS011;29273;49.962;9.768;2024-03-06T11:56:44;7.45;;;6.20;;
38779;SDS011;29273;49.962;9.768;2024-03-06T11:59:12;7.18;;;5.45;;
38779;SDS011;29273;49.962;9.768;2024-03-06T12:01:38;9.10;;;6.25;;
38779;SDS011;29273;49.962;9.768;2024-03-06T12:04:03;7.13;;;5.40;;
38779;SDS011;29273;49.962;9.768;2024-03-06T12:06:32;7.70;;;6.38;;
38779;SDS011;29273;49.962;9.768;2024-03-06T12:08:58;7.53;;;5.65;;
38779;SDS011;29273;49.962;9.768;2024-03-06T12:11:24;8.02;;;6.70;;
38779;SDS011;29273;49.962;9.768;2024-03-06T12:13:53;9.07;;;7.13;;
38779;SDS011;29273;49.962;9.768;2024-03-06T12:16:19;7.68;;;6.18;;
38779;SDS011;29273;49.962;9.768;2024-03-06T12:18:46;8.50;;;7.03;;
38779;SDS011;29273;49.962;9.768;2024-03-06T12:21:11;10.15;;;6.78;;
38779;SDS011;29273;49.962;9.768;2024-03-06T12:23:39;8.43;;;6.53;;
38779;SDS011;29273;49.962;9.768;2024-03-06T12:26:05;8.88;;;6.97;;
38779;SDS011;29273;49.962;9.768;2024-03-06T12:28:39;8.25;;;6.47;;
38779;SDS011;29273;49.962;9.768;2024-03-06T12:31:05;7.75;;;6.10;;
38779;SDS011;29273;49.962;9.768;2024-03-06T12:33:33;7.15;;;5.68;;
38779;SDS011;29273;49.962;9.768;2024-03-06T12:38:35;7.72;;;6.13;;
38779;SDS011;29273;49.962;9.768;2024-03-06T12:41:02;6.85;;;5.25;;
38779;SDS011;29273;49.962;9.768;2024-03-06T12:43:28;7.22;;;6.10;;
38779;SDS011;29273;49.962;9.768;2024-03-06T12:45:56;7.10;;;6.00;;
38779;SDS011;29273;49.962;9.768;2024-03-06T12:48:22;7.05;;;5.63;;
38779;SDS011;29273;49.962;9.768;2024-03-06T12:50:48;8.85;;;6.57;;
38779;SDS011;29273;49.962;9.768;2024-03-06T12:53:22;7.43;;;5.90;;
38779;SDS011;29273;49.962;9.768;2024-03-06T12:55:48;8.65;;;5.97;;
38779;SDS011;29273;49.962;9.768;2024-03-06T12:58:13;7.70;;;6.13;;
38779;SDS011;29273;49.962;9.768;2024-03-06T13:00:39;7.43;;;6.20;;
38779;SDS011;29273;49.962;9.768;2024-03-06T13:03:05;6.18;;;5.35;;
38779;SDS011;29273;49.962;9.768;2024-03-06T13:05:31;7.03;;;5.68;;
38779;SDS011;29273;49.962;9.768;2024-03-06T13:07:57;6.78;;;5.68;;
38779;SDS011;29273;49.962;9.768;2024-03-06T13:10:25;7.15;;;5.50;;
38779;SDS011;29273;49.962;9.768;2024-03-06T13:12:50;7.05;;;5.40;;
38779;SDS011;29273;49.962;9.768;2024-03-06T13:15:16;6.45;;;5.13;;
38779;SDS011;29273;49.962;9.768;2024-03-06T13:17:41;7.13;;;5.82;;
38779;SDS011;29273;49.962;9.768;2024-03-06T13:20:07;8.52;;;5.60;;
38779;SDS011;29273;49.962;9.768;2024-03-06T13:22:39;6.85;;;5.70;;
38779;SDS011;29273;49.962;9.768;2024-03-06T13:25:06;7.00;;;5.43;;
38779;SDS011;29273;49.962;9.768;2024-03-06T13:27:31;6.88;;;5.50;;
38779;SDS011;29273;49.962;9.768;2024-03-06T13:29:57;7.38;;;5.65;;
38779;SDS011;29273;49.962;9.768;2024-03-06T13:32:23;6.68;;;5.28;;
38779;SDS011;29273;49.962;9.768;2024-03-06T13:34:49;6.55;;;5.03;;
38779;SDS011;29273;49.962;9.768;2024-03-06T13:37:15;6.35;;;5.15;;
38779;SDS011;29273;49.962;9.768;2024-03-06T13:39:41;6.45;;;5.35;;
38779;SDS011;29273;49.962;9.768;2024-03-06T13:42:07;6.22;;;5.18;;
38779;SDS011;29273;49.962;9.768;2024-03-06T13:44:36;6.60;;;5.10;;
38779;SDS011;29273;49.962;9.768;2024-03-06T13:47:02;6.75;;;5.80;;
38779;SDS011;29273;49.962;9.768;2024-03-06T13:49:35;6.97;;;5.38;;
38779;SDS011;29273;49.962;9.768;2024-03-06T13:52:05;5.90;;;4.78;;
38779;SDS011;29273;49.962;9.768;2024-03-06T13:54:32;6.60;;;5.25;;
38779;SDS011;29273;49.962;9.768;2024-03-06T13:57:02;6.28;;;5.43;;
38779;SDS011;29273;49.962;9.768;2024-03-06T13:59:31;6.75;;;5.53;;
38779;SDS011;29273;49.962;9.768;2024-03-06T14:01:57;5.95;;;5.03;;
38779;SDS011;29273;49.962;9.768;2024-03-06T14:04:24;5.30;;;4.70;;
38779;SDS011;29273;49.962;9.768;2024-03-06T14:06:50;6.55;;;5.28;;
38779;SDS011;29273;49.962;9.768;2024-03-06T14:09:16;6.78;;;5.22;;
38779;SDS011;29273;49.962;9.768;2024-03-06T14:11:41;6.80;;;5.45;;
38779;SDS011;29273;49.962;9.768;2024-03-06T14:14:07;6.90;;;5.28;;
38779;SDS011;29273;49.962;9.768;2024-03-06T14:16:34;6.05;;;5.13;;
38779;SDS011;29273;49.962;9.768;2024-03-06T14:19:00;6.60;;;5.50;;
38779;SDS011;29273;49.962;9.768;2024-03-06T14:21:25;6.43;;;5.13;;
38779;SDS011;29273;49.962;9.768;2024-03-06T14:23:51;7.95;;;5.75;;
38779;SDS011;29273;49.962;9.768;2024-03-06T14:26:16;6.13;;;5.00;;
38779;SDS011;29273;49.962;9.768;2024-03-06T14:28:42;7.13;;;5.38;;
38779;SDS011;29273;49.962;9.768;2024-03-06T14:31:07;7.60;;;5.68;;
38779;SDS011;29273;49.962;9.768;2024-03-06T14:33:33;7.47;;;6.13;;
38779;SDS011;29273;49.962;9.768;2024-03-06T14:35:59;7.50;;;5.95;;
38779;SDS011;29273;49.962;9.768;2024-03-06T14:38:25;7.05;;;5.53;;
38779;SDS011;29273;49.962;9.768;2024-03-06T14:40:50;6.80;;;5.38;;
38779;SDS011;29273;49.962;9.768;2024-03-06T14:43:16;7.07;;;5.93;;
38779;SDS011;29273;49.962;9.768;2024-03-06T14:45:44;7.07;;;5.47;;
38779;SDS011;29273;49.962;9.768;2024-03-06T14:48:10;6.57;;;5.50;;
38779;SDS011;29273;49.962;9.768;2024-03-06T14:50:36;7.50;;;5.68;;
38779;SDS011;29273;49.962;9.768;2024-03-06T14:53:01;7.20;;;5.90;;
38779;SDS011;29273;49.962;9.768;2024-03-06T14:55:27;7.22;;;5.63;;
38779;SDS011;29273;49.962;9.768;2024-03-06T14:57:53;7.30;;;5.72;;
38779;SDS011;29273;49.962;9.768;2024-03-06T15:00:19;7.47;;;5.78;;
38779;SDS011;29273;49.962;9.768;2024-03-06T15:02:49;7.25;;;6.05;;